Time;durP1;ratioP1;P1;durP2;ratioP2;P2;SDS_P1;SDS_P2;PMS_P1;PMS_P2;Temp;Humidity;BMP_temperature;BMP_pressure;BME280_temperature;BME280_humidity;BME280_pressure;Samples;Min_cycle;Max_cycle;Signal;HPM_P1;HPM_P2
2021/08/05 00:00:30;;;;;;;5.13;3.50;;;;;;;26.70;40.27;100385.53;5012318;28;20034;-67
2021/08/05 00:02:55;;;;;;;5.40;3.80;;;;;;;26.72;40.26;100377.47;5011100;28;20025;-68
2021/08/05 00:05:21;;;;;;;6.50;3.58;;;;;;;26.67;40.29;100377.97;5012277;28;20117;-68
2021/08/05 00:07:47;;;;;;;5.35;3.50;;;;;;;26.55;40.76;100373.03;5012337;28;20022;-67
2021/08/05 00:10:12;;;;;;;4.47;3.25;;;;;;;26.64;40.52;100369.66;5012151;28;20025;-68
2021/08/05 00:12:38;;;;;;;10.95;3.63;;;;;;;26.65;40.42;100363.63;5012219;28;20018;-67
2021/08/05 00:15:04;;;;;;;5.43;3.25;;;;;;;26.60;40.44;100364.13;5012137;28;20025;-68
2021/08/05 00:17:30;;;;;;;3.97;2.88;;;;;;;26.67;40.28;100363.97;5012161;28;20026;-68
2021/08/05 00:19:55;;;;;;;6.53;2.90;;;;;;;26.55;40.57;100351.41;5012105;28;20037;-68
2021/08/05 00:22:21;;;;;;;4.32;2.67;;;;;;;26.59;40.60;100351.31;5012448;28;20026;-75
2021/08/05 00:24:47;;;;;;;5.85;2.72;;;;;;;26.58;40.70;100346.16;5012198;28;20192;-68
2021/08/05 00:27:12;;;;;;;5.18;2.88;;;;;;;26.53;40.65;100347.47;5013278;28;20026;-68
2021/08/05 00:29:37;;;;;;;4.35;2.58;;;;;;;26.52;40.43;100348.66;5015545;28;20029;-68
2021/08/05 00:32:04;;;;;;;4.60;2.92;;;;;;;26.44;40.58;100350.03;5015562;28;20045;-68
2021/08/05 00:34:29;;;;;;;6.20;2.60;;;;;;;26.33;40.80;100339.03;5015469;28;20049;-71
2021/08/05 00:36:55;;;;;;;4.70;2.90;;;;;;;26.34;40.90;100337.81;5015279;28;20078;-68
2021/08/05 00:39:21;;;;;;;4.82;2.78;;;;;;;26.33;40.97;100324.25;5015121;28;20057;-76
2021/08/05 00:41:47;;;;;;;4.45;3.00;;;;;;;26.31;40.81;100321.88;5015702;28;20026;-68
2021/08/05 00:44:12;;;;;;;6.22;3.90;;;;;;;26.29;41.24;100324.28;5015319;28;20084;-68
2021/08/05 00:46:38;;;;;;;6.15;3.33;;;;;;;26.34;41.10;100318.19;5015285;28;20109;-69
2021/08/05 00:49:04;;;;;;;6.13;2.88;;;;;;;26.33;41.26;100315.84;5015163;28;20029;-68
2021/08/05 00:51:29;;;;;;;6.18;3.83;;;;;;;26.38;41.29;100310.53;5015460;28;20026;-68
2021/08/05 00:53:55;;;;;;;5.35;3.67;;;;;;;26.37;41.20;100305.34;5015189;28;20079;-68
2021/08/05 00:56:21;;;;;;;8.23;3.60;;;;;;;26.40;41.27;100296.91;5015112;28;20069;-68
2021/08/05 00:58:46;;;;;;;8.38;3.90;;;;;;;26.38;41.26;100299.31;5015094;28;20029;-68
2021/08/05 01:01:17;;;;;;;6.78;3.22;;;;;;;26.41;41.37;100292.09;5015072;28;20535;-68
2021/08/05 01:03:46;;;;;;;4.88;3.40;;;;;;;26.32;41.44;100294.66;5015010;28;20544;-68
2021/08/05 01:06:27;;;;;;;6.05;3.80;;;;;;;26.35;41.38;100291.78;5013638;28;20050;-68
2021/08/05 01:09:15;;;;;;;5.18;3.40;;;;;;;26.35;41.61;100294.56;5014802;28;20030;-68
2021/08/05 01:11:45;;;;;;;8.05;3.67;;;;;;;26.34;41.41;100281.00;5014931;28;20376;-68
2021/08/05 01:14:16;;;;;;;7.53;3.50;;;;;;;26.29;41.36;100285.09;5015083;28;20022;-68
2021/08/05 01:16:44;;;;;;;4.60;3.28;;;;;;;26.18;41.79;100276.91;5013665;28;20024;-68
2021/08/05 01:19:27;;;;;;;6.95;3.15;;;;;;;26.32;41.53;100270.25;5013540;28;20025;-68
2021/08/05 01:22:00;;;;;;;6.32;3.47;;;;;;;26.25;41.82;100270.38;5014718;28;20034;-68
2021/08/05 01:24:29;;;;;;;5.82;2.75;;;;;;;26.32;41.63;100258.25;5014890;28;20061;-68
2021/08/05 01:26:59;;;;;;;5.63;2.90;;;;;;;26.32;41.55;100258.25;5014656;28;20495;-68
2021/08/05 01:29:25;;;;;;;7.15;3.13;;;;;;;26.41;41.54;100258.47;5012983;28;20340;-68
2021/08/05 01:31:52;;;;;;;4.82;2.95;;;;;;;26.21;41.89;100258.47;5032121;28;20044;-69
2021/08/05 01:34:19;;;;;;;7.47;3.30;;;;;;;26.29;41.94;100246.66;5034643;28;20376;-68
2021/08/05 01:36:47;;;;;;;7.70;3.13;;;;;;;26.14;42.29;100250.19;5034113;28;20516;-68
2021/08/05 01:39:13;;;;;;;5.05;2.60;;;;;;;26.09;42.40;100243.13;5033125;28;20025;-68
2021/08/05 01:41:40;;;;;;;3.42;2.22;;;;;;;26.15;42.30;100229.41;5033387;28;20088;-69
2021/08/05 01:44:10;;;;;;;4.45;2.25;;;;;;;26.18;42.08;100229.31;5034004;28;20032;-68
2021/08/05 01:46:37;;;;;;;4.97;2.60;;;;;;;26.25;41.63;100225.59;5033837;28;20041;-68
2021/08/05 01:49:03;;;;;;;3.35;1.92;;;;;;;26.17;41.88;100218.56;5033721;28;20072;-68
2021/08/05 01:51:30;;;;;;;7.70;3.08;;;;;;;26.17;41.60;100232.56;5033833;28;20033;-68
2021/08/05 01:53:56;;;;;;;4.53;2.58;;;;;;;26.19;41.59;100235.72;5033848;28;20017;-68
2021/08/05 01:56:23;;;;;;;5.07;2.17;;;;;;;26.13;41.69;100229.81;5033433;28;20030;-76
2021/08/05 01:58:50;;;;;;;3.67;1.98;;;;;;;26.14;41.61;100214.59;5033725;28;20029;-76
2021/08/05 02:01:17;;;;;;;4.07;2.35;;;;;;;26.16;41.61;100216.97;5033951;28;20379;-68
2021/08/05 02:04:09;;;;;;;3.60;2.47;;;;;;;26.00;42.04;100207.31;5033666;28;20052;-68
2021/08/05 02:06:42;;;;;;;5.82;2.85;;;;;;;26.06;41.81;100204.75;5033297;28;20034;-68
2021/08/05 02:09:19;;;;;;;7.97;3.03;;;;;;;26.05;41.93;100208.00;5033816;28;20034;-68
2021/08/05 02:11:50;;;;;;;7.00;2.97;;;;;;;26.07;41.91;100197.16;5033522;28;20029;-68
2021/08/05 02:14:19;;;;;;;9.32;3.22;;;;;;;25.97;42.29;100187.75;5033561;28;20124;-68
2021/08/05 02:16:45;;;;;;;7.40;2.83;;;;;;;25.95;42.47;100185.41;5033672;28;20109;-68
2021/08/05 02:19:13;;;;;;;7.82;3.70;;;;;;;25.94;43.04;100183.03;5033381;28;20438;-68
2021/08/05 02:21:42;;;;;;;9.85;3.47;;;;;;;25.83;43.08;100162.88;5033601;28;20497;-68
2021/08/05 02:24:07;;;;;;;6.40;3.20;;;;;;;25.87;43.16;100164.38;5033220;28;20021;-68
2021/08/05 02:26:34;;;;;;;4.38;2.97;;;;;;;25.95;42.78;100162.22;5033218;28;20032;-68
2021/08/05 02:29:01;;;;;;;6.25;3.35;;;;;;;26.16;42.60;100147.00;5033073;28;20032;-68
2021/08/05 02:31:27;;;;;;;6.97;3.10;;;;;;;25.97;42.77;100146.56;5033154;28;20025;-68
2021/08/05 02:33:55;;;;;;;5.85;3.40;;;;;;;26.06;42.67;100143.19;5033181;28;20017;-68
2021/08/05 02:36:21;;;;;;;4.95;2.90;;;;;;;26.05;42.87;100138.03;5032848;28;20045;-68
2021/08/05 02:38:47;;;;;;;5.25;2.85;;;;;;;25.92;42.71;100126.69;5032996;28;20049;-68
2021/08/05 02:41:14;;;;;;;7.35;3.20;;;;;;;25.95;42.85;100123.03;5032968;28;20022;-68
2021/08/05 02:43:41;;;;;;;3.90;2.63;;;;;;;26.10;42.15;100123.53;5033010;28;20060;-68
2021/08/05 02:46:06;;;;;;;6.65;3.33;;;;;;;26.14;42.14;100115.81;5031625;28;20083;-68
2021/08/05 02:48:34;;;;;;;9.32;3.20;;;;;;;26.06;42.30;100115.19;5032811;28;20025;-68
2021/08/05 02:51:00;;;;;;;8.40;3.47;;;;;;;26.09;42.28;100113.53;5032750;28;20048;-68
2021/08/05 02:53:29;;;;;;;7.53;3.17;;;;;;;26.07;42.40;100110.38;5033049;28;20052;-68
2021/08/05 02:55:56;;;;;;;5.25;3.80;;;;;;;25.99;42.52;100107.72;5032826;28;20288;-69
2021/08/05 02:58:22;;;;;;;9.43;2.88;;;;;;;26.00;43.01;100089.75;5031330;28;20116;-68
2021/08/05 03:00:48;;;;;;;6.82;3.42;;;;;;;26.07;42.61;100090.78;5031223;28;20424;-68
2021/08/05 03:03:14;;;;;;;8.75;3.75;;;;;;;26.02;42.98;100085.72;5032547;28;20028;-68
2021/08/05 03:05:40;;;;;;;5.55;3.45;;;;;;;25.99;42.67;100081.75;5032611;28;20487;-68
2021/08/05 03:08:07;;;;;;;6.55;3.63;;;;;;;25.94;43.25;100087.88;5032595;28;20026;-68
2021/08/05 03:10:33;;;;;;;9.35;3.83;;;;;;;26.03;43.07;100076.09;5032518;28;20029;-69
2021/08/05 03:12:59;;;;;;;8.20;3.70;;;;;;;25.92;43.49;100071.53;5031304;28;20026;-68
2021/08/05 03:15:24;;;;;;;7.65;3.47;;;;;;;25.88;43.38;100065.22;5032479;28;20101;-68
2021/08/05 03:17:50;;;;;;;7.18;3.70;;;;;;;25.77;43.11;100063.84;5032464;28;20029;-68
2021/08/05 03:20:16;;;;;;;9.82;3.47;;;;;;;25.70;43.75;100051.59;5032748;28;20021;-68
2021/08/05 03:22:45;;;;;;;6.43;3.90;;;;;;;25.88;43.42;100042.81;5032485;28;20388;-68
2021/08/05 03:25:11;;;;;;;6.93;3.53;;;;;;;25.63;43.92;100048.94;5032502;28;20033;-74
2021/08/05 03:27:38;;;;;;;11.85;4.00;;;;;;;25.55;43.86;100049.53;5032432;28;20120;-68
2021/08/05 03:30:05;;;;;;;8.95;3.90;;;;;;;25.59;44.03;100053.03;5032567;28;20410;-68
2021/08/05 03:32:30;;;;;;;8.68;3.42;;;;;;;25.59;43.93;100047.44;5032295;28;20026;-68
2021/08/05 03:34:56;;;;;;;14.10;4.63;;;;;;;25.54;43.99;100039.53;5032648;28;20029;-68
2021/08/05 03:37:22;;;;;;;8.75;3.63;;;;;;;25.67;43.46;100032.06;5032166;28;20045;-68
2021/08/05 03:39:47;;;;;;;6.25;3.53;;;;;;;25.66;43.20;100036.88;5032326;28;20026;-68
2021/08/05 03:42:13;;;;;;;6.40;3.10;;;;;;;25.73;42.81;100030.38;5032321;28;20033;-68
2021/08/05 03:44:39;;;;;;;8.70;3.08;;;;;;;25.51;43.30;100032.03;5032283;28;20105;-68
2021/08/05 03:47:04;;;;;;;5.47;3.40;;;;;;;25.54;43.24;100019.97;5032279;28;20100;-68
2021/08/05 03:49:30;;;;;;;5.68;2.53;;;;;;;25.62;42.40;100007.44;5032178;28;20108;-68
2021/08/05 03:51:55;;;;;;;6.10;3.03;;;;;;;25.40;43.02;100010.69;5030955;28;20435;-68
2021/08/05 03:54:21;;;;;;;6.00;3.10;;;;;;;25.36;43.18;100001.56;5032171;28;20057;-68
2021/08/05 03:56:47;;;;;;;6.97;2.90;;;;;;;25.44;42.82;99993.81;5032082;28;20061;-68
2021/08/05 03:59:13;;;;;;;7.53;2.85;;;;;;;25.57;42.48;99988.34;5032167;28;20026;-68
2021/08/05 04:01:38;;;;;;;6.03;3.00;;;;;;;25.32;42.79;99986.88;5032724;28;20025;-67
2021/08/05 04:04:04;;;;;;;7.55;3.10;;;;;;;25.36;42.88;99973.59;5035941;28;20036;-69
2021/08/05 04:06:29;;;;;;;5.53;2.55;;;;;;;25.33;42.83;99984.88;5035895;28;20025;-68
2021/08/05 04:08:55;;;;;;;6.43;2.92;;;;;;;25.39;42.46;99969.97;5035846;28;20036;-68
2021/08/05 04:11:21;;;;;;;5.93;2.90;;;;;;;25.30;42.86;99966.16;5035767;28;20033;-68
2021/08/05 04:13:46;;;;;;;5.20;3.10;;;;;;;25.34;42.79;99964.06;5035735;28;20029;-68
2021/08/05 04:16:12;;;;;;;3.92;2.15;;;;;;;25.28;42.85;99952.59;5035702;28;20109;-68
2021/08/05 04:18:38;;;;;;;4.13;2.20;;;;;;;25.30;42.31;99952.16;5035655;28;20037;-68
2021/08/05 04:21:03;;;;;;;7.70;2.67;;;;;;;25.22;42.45;99937.56;5035616;28;20478;-67
2021/08/05 04:23:29;;;;;;;4.32;2.45;;;;;;;25.08;43.10;99940.66;5035612;28;20052;-68
2021/08/05 04:25:54;;;;;;;5.43;2.42;;;;;;;25.30;42.49;99936.19;5035670;28;20034;-68
2021/08/05 04:28:23;;;;;;;6.68;2.25;;;;;;;25.35;42.39;99937.69;5035656;28;20033;-68
2021/08/05 04:30:50;;;;;;;7.82;2.30;;;;;;;25.32;42.32;99928.16;5035736;28;20025;-68
2021/08/05 04:33:17;;;;;;;7.68;2.75;;;;;;;25.57;41.95;99932.41;5035591;28;20491;-68
2021/08/05 04:35:43;;;;;;;10.23;2.92;;;;;;;25.64;41.74;99921.06;5035143;28;20025;-68
2021/08/05 04:38:10;;;;;;;4.63;2.47;;;;;;;25.56;41.97;99926.03;5035300;28;20109;-67
2021/08/05 04:40:36;;;;;;;5.53;2.33;;;;;;;25.51;42.58;99920.16;5033972;28;20426;-68
2021/08/05 04:43:02;;;;;;;5.35;2.53;;;;;;;25.60;42.32;99925.94;5035288;28;20087;-68
2021/08/05 04:45:28;;;;;;;8.85;3.33;;;;;;;25.57;42.26;99915.63;5035179;28;20124;-68
2021/08/05 04:48:07;;;;;;;5.85;2.42;;;;;;;25.57;42.29;99905.22;5033918;28;20080;-68
2021/08/05 04:50:38;;;;;;;5.70;3.13;;;;;;;25.65;42.24;99915.00;5035122;28;20697;-78
2021/08/05 04:53:06;;;;;;;6.35;2.92;;;;;;;25.48;42.96;99910.63;5035043;28;20157;-69
2021/08/05 04:55:32;;;;;;;6.82;3.00;;;;;;;25.41;43.60;99906.00;5034994;28;20025;-68
2021/08/05 04:58:03;;;;;;;6.95;3.65;;;;;;;25.31;44.45;99898.59;5033695;28;20018;-68
2021/08/05 05:00:32;;;;;;;7.30;3.42;;;;;;;25.39;43.82;99893.63;5034915;28;20029;-69
2021/08/05 05:02:58;;;;;;;8.73;3.87;;;;;;;25.48;43.44;99884.69;5034917;28;20025;-68
2021/08/05 05:05:26;;;;;;;9.93;3.60;;;;;;;25.33;43.94;99867.44;5032761;28;20060;-68
2021/08/05 05:07:52;;;;;;;10.05;3.45;;;;;;;25.47;43.94;99867.13;5034077;28;20032;-68
2021/08/05 05:10:20;;;;;;;8.52;4.35;;;;;;;25.41;44.17;99863.25;5034638;28;20026;-68
2021/08/05 05:12:46;;;;;;;8.63;3.90;;;;;;;25.33;44.74;99870.25;5034254;28;20387;-71
2021/08/05 05:15:13;;;;;;;7.82;3.80;;;;;;;25.07;45.41;99867.19;5033821;28;20064;-69
2021/08/05 05:17:40;;;;;;;17.38;5.38;;;;;;;25.25;45.21;99866.81;5034637;28;20029;-68
2021/08/05 05:20:07;;;;;;;12.80;5.30;;;;;;;25.32;45.44;99854.69;5034489;28;20072;-68
2021/08/05 05:22:34;;;;;;;13.25;4.82;;;;;;;25.31;45.80;99858.69;5034471;28;20025;-68
2021/08/05 05:25:00;;;;;;;14.75;5.07;;;;;;;25.30;46.26;99852.31;5034493;28;20502;-69
2021/08/05 05:27:25;;;;;;;14.80;4.88;;;;;;;25.25;46.07;99850.03;5034444;28;20430;-68
2021/08/05 05:29:55;;;;;;;18.90;6.45;;;;;;;25.37;45.85;99838.16;5034250;28;20030;-68
2021/08/05 05:32:22;;;;;;;13.35;4.97;;;;;;;25.08;47.21;99840.81;5034351;28;20026;-69
2021/08/05 05:34:48;;;;;;;9.48;5.07;;;;;;;25.28;47.07;99840.00;5034183;28;20032;-68
2021/08/05 05:37:14;;;;;;;14.52;5.95;;;;;;;25.13;47.56;99839.53;5034032;28;20124;-69
2021/08/05 05:39:39;;;;;;;12.18;7.20;;;;;;;25.18;47.25;99828.63;5034220;28;20029;-69
2021/08/05 05:42:05;;;;;;;14.75;5.63;;;;;;;25.22;47.38;99833.34;5034117;28;20032;-68
2021/08/05 05:44:30;;;;;;;14.02;5.57;;;;;;;25.08;47.77;99834.44;5034018;28;20383;-68
2021/08/05 05:46:56;;;;;;;11.52;5.32;;;;;;;25.18;46.83;99828.63;5034016;28;20083;-68
2021/08/05 05:49:22;;;;;;;10.73;5.50;;;;;;;25.12;47.37;99808.00;5033897;28;20064;-68
2021/08/05 05:51:47;;;;;;;14.15;5.63;;;;;;;25.14;47.11;99807.56;5033916;28;20076;-68
2021/08/05 05:54:13;;;;;;;10.43;4.90;;;;;;;25.20;47.16;99802.25;5033872;28;20017;-69
2021/08/05 05:56:39;;;;;;;15.18;5.25;;;;;;;25.16;47.25;99799.53;5033731;28;20021;-76
2021/08/05 05:59:04;;;;;;;13.43;5.90;;;;;;;25.01;47.39;99801.03;5033833;28;20100;-68
2021/08/05 06:01:30;;;;;;;16.80;5.30;;;;;;;25.23;47.00;99795.78;5033742;28;20029;-68
2021/08/05 06:03:55;;;;;;;17.52;5.05;;;;;;;24.98;47.97;99797.13;5033712;28;20033;-67
2021/08/05 06:06:21;;;;;;;10.27;5.03;;;;;;;25.04;47.50;99789.81;5033669;28;20025;-68
2021/08/05 06:08:47;;;;;;;15.40;5.82;;;;;;;25.09;47.72;99788.50;5033201;28;20029;-67
2021/08/05 06:11:12;;;;;;;14.32;5.63;;;;;;;25.19;47.11;99779.09;5032312;28;20083;-67
2021/08/05 06:13:38;;;;;;;11.18;5.68;;;;;;;25.07;47.37;99771.38;5033530;28;20029;-67
2021/08/05 06:16:04;;;;;;;18.38;5.93;;;;;;;25.18;47.16;99771.94;5032213;28;20491;-67
2021/08/05 06:18:30;;;;;;;21.55;6.85;;;;;;;25.00;47.97;99777.91;5033452;28;20033;-67
2021/08/05 06:20:55;;;;;;;10.43;4.97;;;;;;;25.00;48.00;99771.53;5033357;28;20032;-68
2021/08/05 06:23:21;;;;;;;17.95;6.10;;;;;;;25.23;47.28;99760.22;5033123;28;20108;-78
2021/08/05 06:25:46;;;;;;;14.70;5.47;;;;;;;25.30;46.86;99757.25;5033324;28;20029;-67
2021/08/05 06:28:12;;;;;;;17.90;6.13;;;;;;;25.17;47.47;99750.81;5033222;28;20028;-69
2021/08/05 06:30:38;;;;;;;16.75;6.15;;;;;;;25.24;47.39;99747.84;5033017;28;20067;-69
2021/08/05 06:33:04;;;;;;;15.10;6.20;;;;;;;25.11;47.77;99741.34;5031880;28;20026;-72
2021/08/05 06:35:29;;;;;;;20.70;6.82;;;;;;;25.22;47.58;99755.84;5032905;28;20122;-68
2021/08/05 06:37:55;;;;;;;18.20;5.97;;;;;;;25.14;47.89;99749.66;5031660;28;20100;-68
2021/08/05 06:40:20;;;;;;;13.57;6.03;;;;;;;25.20;47.78;99730.34;5033155;28;20388;-69
2021/08/05 06:42:46;;;;;;;10.52;5.72;;;;;;;25.12;47.97;99729.75;5032963;28;20041;-68
2021/08/05 06:45:13;;;;;;;9.60;4.80;;;;;;;25.04;48.11;99744.31;5032919;28;20055;-69
2021/08/05 06:47:45;;;;;;;14.77;7.30;;;;;;;25.06;48.09;99728.69;5033209;28;20048;-69
2021/08/05 06:50:11;;;;;;;12.32;5.97;;;;;;;25.23;47.56;99718.28;5032915;28;20028;-72
2021/08/05 06:52:37;;;;;;;17.50;6.00;;;;;;;25.06;48.62;99719.50;5032861;28;20029;-69
2021/08/05 06:55:04;;;;;;;17.75;5.75;;;;;;;25.14;48.42;99710.50;5032769;28;20112;-69
2021/08/05 06:57:31;;;;;;;15.02;6.50;;;;;;;25.14;48.13;99723.69;5032715;28;20040;-69
2021/08/05 06:59:58;;;;;;;15.80;7.13;;;;;;;25.04;48.55;99719.97;5032783;28;20025;-68
2021/08/05 07:02:23;;;;;;;17.60;6.88;;;;;;;25.26;47.88;99719.44;5032777;28;20435;-68
2021/08/05 07:04:49;;;;;;;19.02;6.75;;;;;;;25.05;48.11;99713.13;5032703;28;20030;-71
2021/08/05 07:07:14;;;;;;;11.65;5.68;;;;;;;24.99;48.20;99714.06;5032698;28;20034;-68
2021/08/05 07:09:40;;;;;;;15.25;6.13;;;;;;;25.03;47.99;99704.41;5032400;28;20029;-69
2021/08/05 07:12:06;;;;;;;20.15;6.13;;;;;;;25.08;48.17;99703.88;5032597;28;20026;-68
2021/08/05 07:14:32;;;;;;;11.27;5.25;;;;;;;24.97;48.56;99694.16;5032502;28;20384;-69
2021/08/05 07:16:57;;;;;;;16.25;6.50;;;;;;;24.89;48.72;99694.34;5032557;28;20030;-68
2021/08/05 07:19:23;;;;;;;14.85;6.15;;;;;;;25.10;48.21;99690.28;5032550;28;20032;-69
2021/08/05 07:21:49;;;;;;;21.17;7.97;;;;;;;24.94;48.72;99683.84;5032494;28;20033;-68
2021/08/05 07:24:15;;;;;;;16.35;9.02;;;;;;;25.20;47.78;99685.63;5032538;28;20041;-68
2021/08/05 07:26:41;;;;;;;17.77;9.98;;;;;;;25.15;48.08;99683.34;5032471;28;20400;-68
2021/08/05 07:29:07;;;;;;;12.45;8.73;;;;;;;24.68;49.49;99678.06;5032379;28;20033;-69
2021/08/05 07:31:33;;;;;;;20.15;8.40;;;;;;;24.88;49.19;99667.63;5032355;28;20167;-68
2021/08/05 07:33:59;;;;;;;21.25;8.60;;;;;;;25.12;48.27;99662.66;5032331;28;20112;-69
2021/08/05 07:36:26;;;;;;;15.45;9.00;;;;;;;24.84;48.80;99660.53;5032225;28;20049;-68
2021/08/05 07:38:51;;;;;;;15.93;5.28;;;;;;;24.85;49.07;99660.09;5036482;28;20033;-69
2021/08/05 07:41:17;;;;;;;16.40;7.18;;;;;;;24.99;48.77;99663.75;5036333;28;20495;-69
2021/08/05 07:43:43;;;;;;;15.32;5.13;;;;;;;24.57;49.94;99655.22;5036277;28;20060;-69
2021/08/05 07:46:08;;;;;;;11.82;5.65;;;;;;;24.95;49.01;99651.91;5036145;28;20053;-69
2021/08/05 07:48:34;;;;;;;13.85;6.10;;;;;;;24.82;49.07;99649.81;5036126;28;20018;-70
2021/08/05 07:51:00;;;;;;;14.93;6.20;;;;;;;25.23;48.21;99656.78;5036187;28;20017;-69
2021/08/05 07:53:26;;;;;;;15.18;6.25;;;;;;;25.41;47.80;99659.91;5036225;28;20136;-69
2021/08/05 07:55:52;;;;;;;10.85;4.22;;;;;;;25.27;48.37;99645.53;5036154;28;20476;-75
2021/08/05 07:58:17;;;;;;;15.80;5.80;;;;;;;25.45;47.76;99638.22;5036350;28;20032;-69
2021/08/05 08:00:43;;;;;;;12.68;5.10;;;;;;;25.42;47.98;99629.94;5036020;28;20583;-69
2021/08/05 08:03:10;;;;;;;14.85;5.07;;;;;;;25.60;47.15;99626.63;5035930;28;20037;-69
2021/08/05 08:05:36;;;;;;;11.98;4.13;;;;;;;25.32;47.92;99626.22;5035875;28;20076;-68
2021/08/05 08:08:02;;;;;;;15.85;5.70;;;;;;;25.10;48.08;99637.16;5035903;28;20030;-69
2021/08/05 08:10:28;;;;;;;8.27;4.97;;;;;;;24.91;48.44;99629.63;5035760;28;20036;-69
2021/08/05 08:12:54;;;;;;;12.85;3.78;;;;;;;25.18;47.69;99630.16;5035869;28;20021;-69
2021/08/05 08:15:24;;;;;;;7.40;3.38;;;;;;;25.27;47.96;99609.97;5035812;28;20025;-68
2021/08/05 08:17:51;;;;;;;6.25;3.30;;;;;;;25.26;48.06;99613.22;5035756;28;20052;-68
2021/08/05 08:20:18;;;;;;;7.72;3.38;;;;;;;25.33;47.52;99618.59;5035690;28;20021;-68
2021/08/05 08:22:43;;;;;;;7.28;3.30;;;;;;;25.52;47.40;99611.28;5035663;28;20112;-68
2021/08/05 08:25:10;;;;;;;9.82;3.53;;;;;;;25.07;48.22;99604.50;5035574;28;20104;-78
2021/08/05 08:27:36;;;;;;;15.73;5.22;;;;;;;25.31;47.95;99601.47;5035448;28;20383;-69
2021/08/05 08:30:02;;;;;;;7.15;3.47;;;;;;;25.37;47.88;99582.94;5035417;28;20029;-69
2021/08/05 08:32:28;;;;;;;4.70;2.65;;;;;;;25.40;47.81;99588.44;5034951;28;20033;-69
2021/08/05 08:34:54;;;;;;;7.30;3.63;;;;;;;25.31;47.71;99588.28;5035382;28;20480;-69
2021/08/05 08:37:20;;;;;;;10.65;3.58;;;;;;;25.53;46.99;99579.28;5033864;28;20046;-69
2021/08/05 08:39:45;;;;;;;6.15;3.15;;;;;;;25.51;47.23;99576.94;5034041;28;20030;-68
2021/08/05 08:42:14;;;;;;;8.32;3.85;;;;;;;25.35;47.70;99577.78;5035301;28;20083;-76
2021/08/05 08:44:40;;;;;;;5.88;3.13;;;;;;;25.53;47.42;99571.69;5035203;28;20056;-69
2021/08/05 08:47:06;;;;;;;10.25;4.78;;;;;;;25.44;47.57;99561.16;5035371;28;20029;-68
2021/08/05 08:49:32;;;;;;;9.00;5.03;;;;;;;24.91;49.22;99570.97;5034754;28;20021;-69
2021/08/05 08:51:58;;;;;;;10.20;3.58;;;;;;;25.28;47.88;99569.59;5033564;28;20025;-69
2021/08/05 08:54:24;;;;;;;4.75;2.08;;;;;;;25.21;48.31;99561.41;5034987;28;20071;-78
2021/08/05 08:56:54;;;;;;;6.13;3.22;;;;;;;25.40;47.73;99554.09;5035203;28;20384;-69
2021/08/05 08:59:21;;;;;;;6.80;2.58;;;;;;;25.17;48.30;99555.16;5034840;28;20029;-69
2021/08/05 09:01:47;;;;;;;6.43;2.72;;;;;;;25.08;48.57;99543.78;5034772;28;20068;-69
2021/08/05 09:04:13;;;;;;;7.00;2.65;;;;;;;25.09;48.21;99564.91;5034869;28;20365;-68
2021/08/05 09:06:40;;;;;;;5.53;2.97;;;;;;;25.01;48.35;99544.72;5035010;28;20025;-79
2021/08/05 09:09:06;;;;;;;9.10;4.03;;;;;;;25.04;47.88;99543.91;5034959;28;20033;-75
2021/08/05 09:11:32;;;;;;;9.77;3.40;;;;;;;24.77;48.45;99551.75;5034810;28;20494;-67
2021/08/05 09:13:58;;;;;;;9.95;3.80;;;;;;;25.05;47.53;99550.28;5034729;28;20033;-72
2021/08/05 09:16:26;;;;;;;7.75;2.95;;;;;;;24.56;47.91;99541.91;5034843;28;20032;-74
2021/08/05 09:18:52;;;;;;;13.98;4.45;;;;;;;24.82;47.05;99538.06;5034503;28;20035;-81
2021/08/05 09:21:21;;;;;;;9.90;3.30;;;;;;;24.56;47.82;99544.69;5034580;28;20122;-68
2021/08/05 09:23:51;;;;;;;6.05;3.30;;;;;;;24.62;47.76;99526.22;5034587;28;20064;-68
2021/08/05 09:26:30;;;;;;;11.80;4.60;;;;;;;24.60;47.41;99526.66;5034503;28;20103;-77
2021/08/05 09:29:16;;;;;;;8.35;4.10;;;;;;;24.61;47.66;99516.25;5034322;28;20017;-68
2021/08/05 09:33:13;;;;;;;15.18;4.65;;;;;;;24.56;47.59;99500.84;5090035;27;20405;-66
2021/08/05 09:35:40;;;;;;;15.70;5.15;;;;;;;24.37;48.12;99506.50;5090139;28;20161;-66
2021/08/05 09:38:23;;;;;;;11.02;4.03;;;;;;;24.59;47.30;99497.16;5090074;28;20032;-66
2021/08/05 09:40:51;;;;;;;17.27;4.65;;;;;;;24.68;47.12;99487.38;5090124;28;20108;-77
2021/08/05 09:43:25;;;;;;;13.95;6.50;;;;;;;24.73;47.02;99472.88;5090349;28;20021;-66
2021/08/05 09:45:51;;;;;;;12.50;5.05;;;;;;;24.80;47.07;99467.88;5089950;28;20032;-66
2021/08/05 09:48:32;;;;;;;16.35;6.32;;;;;;;24.65;47.81;99463.13;5089882;28;20020;-66
2021/08/05 09:51:06;;;;;;;9.52;5.35;;;;;;;24.74;47.15;99455.69;5089855;28;20048;-79
2021/08/05 09:53:33;;;;;;;27.73;5.05;;;;;;;24.38;48.34;99447.44;5089730;28;20035;-67
2021/08/05 09:56:25;;;;;;;16.95;5.40;;;;;;;24.46;48.19;99457.19;5089782;28;20094;-66
2021/08/05 09:58:51;;;;;;;17.00;5.43;;;;;;;24.58;47.99;99455.72;5088695;28;20118;-67
2021/08/05 10:01:17;;;;;;;17.05;5.50;;;;;;;24.33;48.68;99442.38;5089689;28;20070;-67
2021/08/05 10:03:43;;;;;;;13.05;6.03;;;;;;;24.63;47.83;99450.34;5089676;28;20024;-66
2021/08/05 10:06:09;;;;;;;27.45;7.15;;;;;;;24.33;49.00;99434.81;5089578;28;20035;-77
2021/08/05 10:08:36;;;;;;;17.33;6.32;;;;;;;24.37;49.03;99426.34;5089481;28;20058;-66
2021/08/05 10:11:03;;;;;;;19.63;6.20;;;;;;;24.65;48.86;99410.84;5089423;28;20099;-67
2021/08/05 10:13:36;;;;;;;14.90;5.93;;;;;;;24.11;50.71;99421.78;5089782;28;20055;-66
2021/08/05 10:16:03;;;;;;;15.98;6.07;;;;;;;24.64;48.66;99412.06;5089355;28;20024;-66
2021/08/05 10:18:32;;;;;;;22.45;12.65;;;;;;;24.25;49.75;99413.84;5089202;28;20025;-66
2021/08/05 10:21:01;;;;;;;16.50;9.73;;;;;;;24.54;49.24;99404.75;5089191;28;20478;-66
2021/08/05 10:23:28;;;;;;;24.70;10.95;;;;;;;24.43;49.00;99398.69;5089697;28;20090;-69
2021/08/05 10:26:00;;;;;;;23.30;11.75;;;;;;;24.26;49.68;99404.28;5089188;28;20035;-70
2021/08/05 10:28:26;;;;;;;25.48;13.18;;;;;;;24.32;49.77;99380.19;5088822;28;20074;-69
2021/08/05 10:30:54;;;;;;;33.25;12.95;;;;;;;24.21;50.18;99382.47;5088930;28;20482;-69
2021/08/05 10:33:20;;;;;;;21.25;11.25;;;;;;;24.44;49.25;99383.50;5089048;28;20031;-69
2021/08/05 10:35:50;;;;;;;18.63;11.82;;;;;;;24.42;49.65;99381.16;5088999;28;20032;-68
2021/08/05 10:38:21;;;;;;;28.73;11.90;;;;;;;24.20;50.25;99368.94;5089030;28;20025;-69
2021/08/05 10:40:49;;;;;;;20.15;11.88;;;;;;;23.69;52.07;99385.34;5088896;28;20260;-69
2021/08/05 10:43:14;;;;;;;19.85;10.23;;;;;;;23.97;51.32;99378.31;5082365;28;20020;-69
2021/08/05 10:45:40;;;;;;;42.47;26.70;;;;;;;23.97;51.13;99379.09;5075559;28;20036;-69
2021/08/05 10:48:08;;;;;;;24.77;15.27;;;;;;;23.91;51.31;99371.69;5075314;28;20395;-71
2021/08/05 10:50:42;;;;;;;25.77;15.02;;;;;;;23.95;51.18;99361.19;5075159;28;20039;-71
2021/08/05 10:53:13;;;;;;;29.90;15.13;;;;;;;24.32;50.02;99366.22;5075217;28;20474;-77
2021/08/05 10:55:41;;;;;;;22.80;15.63;;;;;;;24.14;50.84;99363.13;5075213;28;20032;-69
2021/08/05 10:58:21;;;;;;;37.15;15.02;;;;;;;24.42;50.16;99360.81;5075022;28;20459;-68
2021/08/05 11:00:49;;;;;;;;;;;;;;;24.19;51.33;99356.22;5075499;28;20039;-68
2021/08/05 11:03:37;;;;;;;13.70;9.82;;;;;;;23.95;51.91;99359.19;5075007;28;19912;-69
2021/08/05 11:06:08;;;;;;;13.15;11.55;;;;;;;24.40;51.03;99354.88;5075264;28;20481;-68
2021/08/05 11:08:34;;;;;;;15.23;12.23;;;;;;;24.43;50.71;99354.03;5074866;28;20031;-68
2021/08/05 11:11:25;;;;;;;16.67;7.90;;;;;;;24.21;51.74;99346.19;5074671;28;20031;-68
2021/08/05 11:13:59;;;;;;;16.30;13.18;;;;;;;24.28;51.52;99346.00;5074658;28;20391;-71
2021/08/05 11:16:53;;;;;;;15.30;13.50;;;;;;;24.88;49.98;99345.56;5074487;28;20052;-68
2021/08/05 11:19:23;;;;;;;14.23;9.40;;;;;;;24.39;51.69;99344.94;5074631;28;20021;-68
2021/08/05 11:21:48;;;;;;;;;;;;;;;24.34;51.78;99338.69;5073781;28;20441;-68
2021/08/05 11:24:48;;;;;;;13.85;12.13;;;;;;;24.15;52.80;99333.19;5074596;28;19912;-68
2021/08/05 11:27:15;;;;;;;22.25;14.60;;;;;;;24.77;51.08;99326.28;5074539;28;20031;-77
2021/08/05 11:29:41;;;;;;;18.20;10.27;;;;;;;24.79;51.39;99337.81;5074518;28;20112;-68